Terminal Aerodrome Forecast
Issued by NWS

Home | Current Version | Previous Version | Text Only | Print | Product List | Glossary On
Versions: 1 2 3 4 5 6 7 8 9 10 11 12 13 14 15 16
000
FTUS45 KFGZ 251100
TAFGCN
TAF
KGCN 251137Z 2512/2612 21009KT P6SM BKN015 BKN025
      TEMPO 2516/2518 SCT020 BKN030
     FM251800 22017G28KT P6SM VCSH BKN015 BKN025
      TEMPO 2519/2523 4SM -SHRA BKN015
     FM252300 23013G19KT 3SM -SHRA BR OVC010
     FM260600 24010G18KT 2SM -SHRASN BR OVC006=

USA.gov is the U.S. government's official web portal to all federal, state and local government web resources and services.